sensor_id;sensor_type;location;lat;lon;timestamp;pressure;altitude;pressure_sealevel;temperature;humidity
78016;BME280;67223;51.102;5.882;2023-05-07T00:01:48;101436.06;;;14.63;85.61
78016;BME280;67223;51.102;5.882;2023-05-07T00:04:13;101437.66;;;14.45;86.09
78016;BME280;67223;51.102;5.882;2023-05-07T00:06:39;101430.78;;;14.52;86.18
78016;BME280;67223;51.102;5.882;2023-05-07T00:09:05;101428.06;;;14.43;86.46
78016;BME280;67223;51.102;5.882;2023-05-07T00:11:31;101425.50;;;14.41;86.46
78016;BME280;67223;51.102;5.882;2023-05-07T00:13:57;101430.13;;;14.70;86.30
78016;BME280;67223;51.102;5.882;2023-05-07T00:16:22;101427.41;;;14.60;86.57
78016;BME280;67223;51.102;5.882;2023-05-07T00:18:48;101430.41;;;14.67;86.26
78016;BME280;67223;51.102;5.882;2023-05-07T00:21:13;101438.75;;;14.63;86.63
78016;BME280;67223;51.102;5.882;2023-05-07T00:23:39;101437.13;;;14.51;86.79
78016;BME280;67223;51.102;5.882;2023-05-07T00:26:05;101429.59;;;14.45;87.21
78016;BME280;67223;51.102;5.882;2023-05-07T00:28:31;101438.44;;;14.57;86.77
78016;BME280;67223;51.102;5.882;2023-05-07T00:30:56;101429.84;;;14.63;87.38
78016;BME280;67223;51.102;5.882;2023-05-07T00:33:22;101428.00;;;14.63;86.59
78016;BME280;67223;51.102;5.882;2023-05-07T00:35:48;101430.94;;;14.60;86.35
78016;BME280;67223;51.102;5.882;2023-05-07T00:38:14;101432.66;;;14.61;86.75
78016;BME280;67223;51.102;5.882;2023-05-07T00:40:40;101439.97;;;14.59;86.37
78016;BME280;67223;51.102;5.882;2023-05-07T00:43:06;101427.69;;;14.57;86.32
78016;BME280;67223;51.102;5.882;2023-05-07T00:45:33;101434.63;;;14.29;86.61
78016;BME280;67223;51.102;5.882;2023-05-07T00:48:04;101437.41;;;14.48;86.49
78016;BME280;67223;51.102;5.882;2023-05-07T00:50:30;101437.38;;;14.39;87.03
78016;BME280;67223;51.102;5.882;2023-05-07T00:52:56;101433.56;;;14.41;87.19
78016;BME280;67223;51.102;5.882;2023-05-07T00:55:23;101436.00;;;14.44;86.78
78016;BME280;67223;51.102;5.882;2023-05-07T00:57:49;101431.22;;;14.57;86.17
78016;BME280;67223;51.102;5.882;2023-05-07T01:00:15;101421.53;;;14.45;86.80
78016;BME280;67223;51.102;5.882;2023-05-07T01:02:41;101421.03;;;14.61;86.98
78016;BME280;67223;51.102;5.882;2023-05-07T01:05:17;101412.78;;;14.43;86.57
78016;BME280;67223;51.102;5.882;2023-05-07T01:07:44;101406.25;;;14.36;86.73
78016;BME280;67223;51.102;5.882;2023-05-07T01:10:11;101414.66;;;14.32;87.07
78016;BME280;67223;51.102;5.882;2023-05-07T01:12:37;101407.03;;;14.27;87.21
78016;BME280;67223;51.102;5.882;2023-05-07T01:15:05;101411.88;;;14.33;87.19
78016;BME280;67223;51.102;5.882;2023-05-07T01:17:49;101405.28;;;14.47;87.52
78016;BME280;67223;51.102;5.882;2023-05-07T01:20:15;101408.38;;;14.42;86.77
78016;BME280;67223;51.102;5.882;2023-05-07T01:22:42;101410.78;;;14.45;87.19
78016;BME280;67223;51.102;5.882;2023-05-07T01:25:08;101406.03;;;14.28;87.81
78016;BME280;67223;51.102;5.882;2023-05-07T01:27:34;101409.19;;;14.33;87.51
78016;BME280;67223;51.102;5.882;2023-05-07T01:30:02;101405.06;;;14.29;87.61
78016;BME280;67223;51.102;5.882;2023-05-07T01:34:55;101405.84;;;14.20;87.81
78016;BME280;67223;51.102;5.882;2023-05-07T01:37:23;101400.75;;;14.17;87.93
78016;BME280;67223;51.102;5.882;2023-05-07T01:39:49;101392.56;;;14.18;87.64
78016;BME280;67223;51.102;5.882;2023-05-07T01:42:15;101392.81;;;14.15;88.12
78016;BME280;67223;51.102;5.882;2023-05-07T01:44:40;101391.25;;;14.13;88.03
78016;BME280;67223;51.102;5.882;2023-05-07T01:47:06;101401.56;;;14.08;87.82
78016;BME280;67223;51.102;5.882;2023-05-07T01:49:31;101379.94;;;14.09;88.86
78016;BME280;67223;51.102;5.882;2023-05-07T01:51:58;101386.53;;;14.05;88.32
78016;BME280;67223;51.102;5.882;2023-05-07T01:54:27;101381.41;;;13.93;88.36
78016;BME280;67223;51.102;5.882;2023-05-07T01:56:54;101379.22;;;14.07;88.91
78016;BME280;67223;51.102;5.882;2023-05-07T01:59:20;101392.31;;;14.01;88.81
78016;BME280;67223;51.102;5.882;2023-05-07T02:01:45;101389.63;;;14.01;87.76
78016;BME280;67223;51.102;5.882;2023-05-07T02:04:11;101385.44;;;14.08;88.24
78016;BME280;67223;51.102;5.882;2023-05-07T02:06:36;101376.94;;;14.03;88.28
78016;BME280;67223;51.102;5.882;2023-05-07T02:09:02;101375.19;;;13.92;88.34
78016;BME280;67223;51.102;5.882;2023-05-07T02:11:27;101370.66;;;13.93;88.97
78016;BME280;67223;51.102;5.882;2023-05-07T02:13:53;101371.00;;;13.99;88.38
78016;BME280;67223;51.102;5.882;2023-05-07T02:16:18;101378.09;;;14.10;88.21
78016;BME280;67223;51.102;5.882;2023-05-07T02:18:45;101382.66;;;13.89;88.76
78016;BME280;67223;51.102;5.882;2023-05-07T02:21:10;101381.06;;;13.86;88.86
78016;BME280;67223;51.102;5.882;2023-05-07T02:23:37;101388.03;;;13.89;88.61
78016;BME280;67223;51.102;5.882;2023-05-07T02:26:03;101390.56;;;13.90;89.13
78016;BME280;67223;51.102;5.882;2023-05-07T02:28:29;101396.13;;;13.98;88.61
78016;BME280;67223;51.102;5.882;2023-05-07T02:30:55;101393.84;;;13.94;88.30
78016;BME280;67223;51.102;5.882;2023-05-07T02:33:20;101396.34;;;13.86;88.94
78016;BME280;67223;51.102;5.882;2023-05-07T02:35:46;101395.22;;;13.88;89.01
78016;BME280;67223;51.102;5.882;2023-05-07T02:38:11;101400.53;;;13.99;89.12
78016;BME280;67223;51.102;5.882;2023-05-07T02:40:37;101399.47;;;13.91;88.45
78016;BME280;67223;51.102;5.882;2023-05-07T02:43:05;101401.47;;;13.89;88.78
78016;BME280;67223;51.102;5.882;2023-05-07T02:45:32;101413.06;;;13.89;88.50
78016;BME280;67223;51.102;5.882;2023-05-07T02:47:58;101405.03;;;13.99;88.94
78016;BME280;67223;51.102;5.882;2023-05-07T02:50:23;101399.34;;;13.92;88.69
78016;BME280;67223;51.102;5.882;2023-05-07T02:52:49;101401.50;;;13.98;88.90
78016;BME280;67223;51.102;5.882;2023-05-07T02:55:15;101407.19;;;14.05;88.60
78016;BME280;67223;51.102;5.882;2023-05-07T02:57:40;101405.75;;;14.01;88.56
78016;BME280;67223;51.102;5.882;2023-05-07T03:00:14;101408.03;;;14.05;88.64
78016;BME280;67223;51.102;5.882;2023-05-07T03:05:15;101403.00;;;13.91;88.95
78016;BME280;67223;51.102;5.882;2023-05-07T03:07:41;101400.03;;;13.85;88.91
78016;BME280;67223;51.102;5.882;2023-05-07T03:10:10;101402.03;;;13.92;88.96
78016;BME280;67223;51.102;5.882;2023-05-07T03:12:35;101404.72;;;13.92;89.03
78016;BME280;67223;51.102;5.882;2023-05-07T03:15:01;101401.47;;;13.89;89.01
78016;BME280;67223;51.102;5.882;2023-05-07T03:17:26;101397.50;;;13.93;89.21
78016;BME280;67223;51.102;5.882;2023-05-07T03:19:52;101396.59;;;14.03;88.59
78016;BME280;67223;51.102;5.882;2023-05-07T03:22:17;101398.09;;;13.96;88.84
78016;BME280;67223;51.102;5.882;2023-05-07T03:24:43;101396.59;;;13.83;88.56
78016;BME280;67223;51.102;5.882;2023-05-07T03:27:08;101387.25;;;13.77;88.92
78016;BME280;67223;51.102;5.882;2023-05-07T03:29:34;101383.91;;;13.85;89.38
78016;BME280;67223;51.102;5.882;2023-05-07T03:31:59;101380.91;;;13.78;88.89
78016;BME280;67223;51.102;5.882;2023-05-07T03:34:25;101379.06;;;13.78;88.88
78016;BME280;67223;51.102;5.882;2023-05-07T03:36:50;101379.38;;;13.85;89.04
78016;BME280;67223;51.102;5.882;2023-05-07T03:39:16;101383.34;;;13.91;88.68
78016;BME280;67223;51.102;5.882;2023-05-07T03:41:42;101377.34;;;13.77;89.03
78016;BME280;67223;51.102;5.882;2023-05-07T03:44:07;101370.16;;;13.78;88.75
78016;BME280;67223;51.102;5.882;2023-05-07T03:46:33;101379.78;;;13.80;89.11
78016;BME280;67223;51.102;5.882;2023-05-07T03:48:59;101381.59;;;13.80;88.77
78016;BME280;67223;51.102;5.882;2023-05-07T03:51:25;101382.72;;;13.77;89.34
78016;BME280;67223;51.102;5.882;2023-05-07T03:53:51;101393.81;;;13.63;88.75
78016;BME280;67223;51.102;5.882;2023-05-07T03:56:19;101390.59;;;13.69;89.05
78016;BME280;67223;51.102;5.882;2023-05-07T03:58:46;101397.91;;;13.67;88.60
78016;BME280;67223;51.102;5.882;2023-05-07T04:01:12;101400.09;;;13.73;88.77
78016;BME280;67223;51.102;5.882;2023-05-07T04:03:37;101396.94;;;13.68;89.04
78016;BME280;67223;51.102;5.882;2023-05-07T04:06:03;101390.16;;;13.64;89.04
78016;BME280;67223;51.102;5.882;2023-05-07T04:08:29;101401.41;;;13.58;89.51
78016;BME280;67223;51.102;5.882;2023-05-07T04:10:58;101394.44;;;13.56;89.18
78016;BME280;67223;51.102;5.882;2023-05-07T04:13:24;101397.00;;;13.57;89.53
78016;BME280;67223;51.102;5.882;2023-05-07T04:15:50;101400.47;;;13.48;89.30
78016;BME280;67223;51.102;5.882;2023-05-07T04:18:16;101404.88;;;13.49;89.45
78016;BME280;67223;51.102;5.882;2023-05-07T04:20:41;101395.75;;;13.61;89.18
78016;BME280;67223;51.102;5.882;2023-05-07T04:23:07;101397.91;;;13.67;89.43
78016;BME280;67223;51.102;5.882;2023-05-07T04:25:33;101400.34;;;13.50;89.51
78016;BME280;67223;51.102;5.882;2023-05-07T04:27:59;101389.28;;;13.43;89.61
78016;BME280;67223;51.102;5.882;2023-05-07T04:30:24;101390.78;;;13.57;89.55
78016;BME280;67223;51.102;5.882;2023-05-07T04:32:50;101395.72;;;13.41;89.23
78016;BME280;67223;51.102;5.882;2023-05-07T04:35:16;101397.56;;;13.40;89.46
78016;BME280;67223;51.102;5.882;2023-05-07T04:37:42;101398.44;;;13.61;88.73
78016;BME280;67223;51.102;5.882;2023-05-07T04:40:08;101400.41;;;13.59;89.38
78016;BME280;67223;51.102;5.882;2023-05-07T04:42:33;101401.19;;;13.71;88.92
78016;BME280;67223;51.102;5.882;2023-05-07T04:44:59;101396.94;;;13.68;88.71
78016;BME280;67223;51.102;5.882;2023-05-07T04:47:25;101388.75;;;13.70;88.87
78016;BME280;67223;51.102;5.882;2023-05-07T04:49:50;101398.66;;;13.69;88.93
78016;BME280;67223;51.102;5.882;2023-05-07T04:52:16;101399.63;;;13.68;89.15
78016;BME280;67223;51.102;5.882;2023-05-07T04:54:41;101394.72;;;13.73;89.32
78016;BME280;67223;51.102;5.882;2023-05-07T04:57:07;101387.81;;;13.80;88.95
78016;BME280;67223;51.102;5.882;2023-05-07T04:59:33;101392.94;;;13.84;88.67
78016;BME280;67223;51.102;5.882;2023-05-07T05:01:58;101389.53;;;13.82;88.81
78016;BME280;67223;51.102;5.882;2023-05-07T05:04:24;101398.88;;;13.87;88.96
78016;BME280;67223;51.102;5.882;2023-05-07T05:06:49;101405.63;;;13.82;88.65
78016;BME280;67223;51.102;5.882;2023-05-07T05:09:15;101402.03;;;13.92;88.53
78016;BME280;67223;51.102;5.882;2023-05-07T05:11:41;101403.41;;;13.87;88.38
78016;BME280;67223;51.102;5.882;2023-05-07T05:14:06;101412.59;;;13.84;88.68
78016;BME280;67223;51.102;5.882;2023-05-07T05:16:32;101419.28;;;13.90;88.17
78016;BME280;67223;51.102;5.882;2023-05-07T05:18:58;101427.06;;;13.93;88.19
78016;BME280;67223;51.102;5.882;2023-05-07T05:21:23;101436.75;;;13.84;88.96
78016;BME280;67223;51.102;5.882;2023-05-07T05:23:48;101436.88;;;14.03;88.57
78016;BME280;67223;51.102;5.882;2023-05-07T05:26:14;101434.88;;;14.05;87.78
78016;BME280;67223;51.102;5.882;2023-05-07T05:28:39;101427.00;;;14.04;88.31
78016;BME280;67223;51.102;5.882;2023-05-07T05:31:05;101439.97;;;13.99;88.02
78016;BME280;67223;51.102;5.882;2023-05-07T05:33:30;101438.31;;;14.07;88.15
78016;BME280;67223;51.102;5.882;2023-05-07T05:35:56;101436.00;;;14.23;87.48
78016;BME280;67223;51.102;5.882;2023-05-07T05:38:21;101427.09;;;14.23;88.17
78016;BME280;67223;51.102;5.882;2023-05-07T05:40:47;101431.88;;;14.19;87.97
78016;BME280;67223;51.102;5.882;2023-05-07T05:43:13;101434.75;;;14.28;87.56
78016;BME280;67223;51.102;5.882;2023-05-07T05:45:39;101437.31;;;14.29;86.46
78016;BME280;67223;51.102;5.882;2023-05-07T05:48:05;101439.91;;;14.40;86.35
78016;BME280;67223;51.102;5.882;2023-05-07T05:50:31;101445.66;;;14.36;86.69
78016;BME280;67223;51.102;5.882;2023-05-07T05:52:57;101446.78;;;14.33;86.17
78016;BME280;67223;51.102;5.882;2023-05-07T05:55:23;101445.88;;;14.23;86.53
78016;BME280;67223;51.102;5.882;2023-05-07T05:57:49;101450.75;;;14.29;85.95
78016;BME280;67223;51.102;5.882;2023-05-07T06:00:15;101442.47;;;14.21;86.19
78016;BME280;67223;51.102;5.882;2023-05-07T06:02:41;101448.88;;;14.30;86.27
78016;BME280;67223;51.102;5.882;2023-05-07T06:05:08;101446.28;;;14.39;86.11
78016;BME280;67223;51.102;5.882;2023-05-07T06:07:33;101452.38;;;14.41;85.71
78016;BME280;67223;51.102;5.882;2023-05-07T06:10:00;101442.91;;;14.47;85.92
78016;BME280;67223;51.102;5.882;2023-05-07T06:12:25;101438.94;;;14.41;85.76
78016;BME280;67223;51.102;5.882;2023-05-07T06:14:51;101440.69;;;14.52;84.98
78016;BME280;67223;51.102;5.882;2023-05-07T06:17:17;101439.97;;;14.59;85.39
78016;BME280;67223;51.102;5.882;2023-05-07T06:19:43;101443.44;;;14.71;85.34
78016;BME280;67223;51.102;5.882;2023-05-07T06:22:08;101447.50;;;14.65;85.56
78016;BME280;67223;51.102;5.882;2023-05-07T06:24:34;101442.84;;;14.68;85.30
78016;BME280;67223;51.102;5.882;2023-05-07T06:26:59;101448.28;;;14.87;85.55
78016;BME280;67223;51.102;5.882;2023-05-07T06:29:25;101447.72;;;14.83;85.05
78016;BME280;67223;51.102;5.882;2023-05-07T06:31:55;101453.69;;;14.96;84.92
78016;BME280;67223;51.102;5.882;2023-05-07T06:34:21;101455.41;;;14.97;84.89
78016;BME280;67223;51.102;5.882;2023-05-07T06:36:46;101456.25;;;14.98;84.20
78016;BME280;67223;51.102;5.882;2023-05-07T06:39:12;101465.00;;;14.90;83.48
78016;BME280;67223;51.102;5.882;2023-05-07T06:41:38;101461.63;;;14.98;83.36
78016;BME280;67223;51.102;5.882;2023-05-07T06:44:04;101465.09;;;15.19;83.25
78016;BME280;67223;51.102;5.882;2023-05-07T06:46:30;101470.56;;;15.08;83.47
78016;BME280;67223;51.102;5.882;2023-05-07T06:48:56;101460.53;;;15.20;82.77
78016;BME280;67223;51.102;5.882;2023-05-07T06:51:22;101463.06;;;15.12;82.73
78016;BME280;67223;51.102;5.882;2023-05-07T06:53:48;101469.19;;;15.14;82.85
78016;BME280;67223;51.102;5.882;2023-05-07T06:56:14;101460.53;;;15.20;82.30
78016;BME280;67223;51.102;5.882;2023-05-07T06:58:39;101470.06;;;15.33;82.48
78016;BME280;67223;51.102;5.882;2023-05-07T07:01:05;101466.19;;;15.17;82.10
78016;BME280;67223;51.102;5.882;2023-05-07T07:03:30;101471.34;;;15.39;82.14
78016;BME280;67223;51.102;5.882;2023-05-07T07:05:56;101471.94;;;15.52;82.05
78016;BME280;67223;51.102;5.882;2023-05-07T07:08:22;101474.63;;;15.71;81.80
78016;BME280;67223;51.102;5.882;2023-05-07T07:10:47;101479.59;;;15.57;81.25
78016;BME280;67223;51.102;5.882;2023-05-07T07:13:13;101472.50;;;15.65;80.63
78016;BME280;67223;51.102;5.882;2023-05-07T07:15:39;101474.19;;;15.66;80.85
78016;BME280;67223;51.102;5.882;2023-05-07T07:18:05;101476.47;;;15.71;80.34
78016;BME280;67223;51.102;5.882;2023-05-07T07:20:31;101475.88;;;15.96;80.79
78016;BME280;67223;51.102;5.882;2023-05-07T07:22:56;101472.59;;;16.12;80.52
78016;BME280;67223;51.102;5.882;2023-05-07T07:25:22;101477.13;;;16.11;80.24
78016;BME280;67223;51.102;5.882;2023-05-07T07:27:49;101489.31;;;16.15;79.39
78016;BME280;67223;51.102;5.882;2023-05-07T07:30:14;101491.16;;;16.15;78.66
78016;BME280;67223;51.102;5.882;2023-05-07T07:32:40;101478.91;;;16.30;78.43
78016;BME280;67223;51.102;5.882;2023-05-07T07:35:06;101487.06;;;16.57;77.97
78016;BME280;67223;51.102;5.882;2023-05-07T07:37:32;101477.09;;;16.77;77.53
78016;BME280;67223;51.102;5.882;2023-05-07T07:39:57;101486.38;;;16.92;76.56
78016;BME280;67223;51.102;5.882;2023-05-07T07:42:23;101480.34;;;17.08;76.27
78016;BME280;67223;51.102;5.882;2023-05-07T07:44:48;101477.97;;;17.23;75.61
78016;BME280;67223;51.102;5.882;2023-05-07T07:47:14;101472.97;;;17.28;75.22
78016;BME280;67223;51.102;5.882;2023-05-07T07:49:39;101465.81;;;17.09;74.67
78016;BME280;67223;51.102;5.882;2023-05-07T07:52:05;101478.50;;;17.44;75.04
78016;BME280;67223;51.102;5.882;2023-05-07T07:54:30;101483.09;;;17.61;74.73
78016;BME280;67223;51.102;5.882;2023-05-07T07:56:56;101480.00;;;17.91;75.23
78016;BME280;67223;51.102;5.882;2023-05-07T07:59:21;101481.59;;;18.02;73.84
78016;BME280;67223;51.102;5.882;2023-05-07T08:01:47;101481.94;;;18.50;72.04
78016;BME280;67223;51.102;5.882;2023-05-07T08:04:15;101486.38;;;18.34;71.68
78016;BME280;67223;51.102;5.882;2023-05-07T08:06:40;101485.84;;;18.30;72.08
78016;BME280;67223;51.102;5.882;2023-05-07T08:09:06;101484.09;;;19.23;71.25
78016;BME280;67223;51.102;5.882;2023-05-07T08:11:31;101484.59;;;19.85;70.21
78016;BME280;67223;51.102;5.882;2023-05-07T08:13:57;101485.94;;;19.89;68.01
78016;BME280;67223;51.102;5.882;2023-05-07T08:16:22;101491.84;;;20.57;65.66
78016;BME280;67223;51.102;5.882;2023-05-07T08:18:48;101491.34;;;19.89;64.72
78016;BME280;67223;51.102;5.882;2023-05-07T08:21:13;101490.50;;;19.64;64.23
78016;BME280;67223;51.102;5.882;2023-05-07T08:23:40;101495.63;;;20.07;64.29
78016;BME280;67223;51.102;5.882;2023-05-07T08:26:05;101494.75;;;19.74;64.89
78016;BME280;67223;51.102;5.882;2023-05-07T08:28:30;101497.09;;;19.77;65.30
78016;BME280;67223;51.102;5.882;2023-05-07T08:30:56;101485.72;;;20.23;64.39
78016;BME280;67223;51.102;5.882;2023-05-07T08:33:22;101488.31;;;20.16;62.45
78016;BME280;67223;51.102;5.882;2023-05-07T08:35:47;101496.59;;;20.39;63.49
78016;BME280;67223;51.102;5.882;2023-05-07T08:38:13;101487.28;;;20.41;63.53
78016;BME280;67223;51.102;5.882;2023-05-07T08:40:39;101483.53;;;20.42;63.30
78016;BME280;67223;51.102;5.882;2023-05-07T08:43:06;101493.78;;;20.79;63.70
78016;BME280;67223;51.102;5.882;2023-05-07T08:45:35;101489.38;;;20.78;62.47
78016;BME280;67223;51.102;5.882;2023-05-07T08:48:05;101489.19;;;20.80;61.89
78016;BME280;67223;51.102;5.882;2023-05-07T08:50:35;101494.31;;;20.75;60.45
78016;BME280;67223;51.102;5.882;2023-05-07T08:53:03;101489.03;;;20.73;59.47
78016;BME280;67223;51.102;5.882;2023-05-07T08:55:28;101498.81;;;20.03;62.53
78016;BME280;67223;51.102;5.882;2023-05-07T08:57:55;101493.72;;;20.24;62.38
78016;BME280;67223;51.102;5.882;2023-05-07T09:00:20;101498.28;;;20.48;62.78
78016;BME280;67223;51.102;5.882;2023-05-07T09:02:46;101498.78;;;20.43;61.25
78016;BME280;67223;51.102;5.882;2023-05-07T09:05:11;101498.78;;;20.43;60.54
78016;BME280;67223;51.102;5.882;2023-05-07T09:07:37;101503.19;;;20.60;61.76
78016;BME280;67223;51.102;5.882;2023-05-07T09:10:03;101504.88;;;20.53;60.52
78016;BME280;67223;51.102;5.882;2023-05-07T09:12:29;101510.63;;;20.58;58.25
78016;BME280;67223;51.102;5.882;2023-05-07T09:14:56;101516.78;;;20.44;57.71
78016;BME280;67223;51.102;5.882;2023-05-07T09:17:22;101505.56;;;20.47;58.53
78016;BME280;67223;51.102;5.882;2023-05-07T09:19:47;101509.47;;;20.29;58.51
78016;BME280;67223;51.102;5.882;2023-05-07T09:22:13;101504.72;;;20.23;59.58
78016;BME280;67223;51.102;5.882;2023-05-07T09:24:39;101506.59;;;20.30;59.38
78016;BME280;67223;51.102;5.882;2023-05-07T09:27:05;101512.03;;;20.30;59.31
78016;BME280;67223;51.102;5.882;2023-05-07T09:29:31;101500.69;;;20.35;59.53
78016;BME280;67223;51.102;5.882;2023-05-07T09:32:07;101499.19;;;20.32;59.24
78016;BME280;67223;51.102;5.882;2023-05-07T09:34:33;101501.69;;;20.26;60.10
78016;BME280;67223;51.102;5.882;2023-05-07T09:37:01;101500.19;;;20.31;59.65
78016;BME280;67223;51.102;5.882;2023-05-07T09:39:38;101499.81;;;20.26;59.06
78016;BME280;67223;51.102;5.882;2023-05-07T09:42:04;101497.09;;;20.42;60.17
78016;BME280;67223;51.102;5.882;2023-05-07T09:44:31;101505.19;;;20.67;60.51
78016;BME280;67223;51.102;5.882;2023-05-07T09:46:59;101505.56;;;20.55;59.69
78016;BME280;67223;51.102;5.882;2023-05-07T09:49:29;101501.41;;;20.84;60.09
78016;BME280;67223;51.102;5.882;2023-05-07T09:52:00;101502.56;;;20.89;60.39
78016;BME280;67223;51.102;5.882;2023-05-07T09:54:26;101499.53;;;21.23;61.82
78016;BME280;67223;51.102;5.882;2023-05-07T09:56:55;101494.72;;;21.41;59.84
78016;BME280;67223;51.102;5.882;2023-05-07T09:59:21;101489.81;;;21.60;58.61
78016;BME280;67223;51.102;5.882;2023-05-07T10:01:48;101498.88;;;21.75;58.69
78016;BME280;67223;51.102;5.882;2023-05-07T10:04:14;101497.69;;;22.00;57.70
78016;BME280;67223;51.102;5.882;2023-05-07T10:06:40;101502.41;;;22.06;58.04
78016;BME280;67223;51.102;5.882;2023-05-07T10:09:06;101502.00;;;21.95;56.16
78016;BME280;67223;51.102;5.882;2023-05-07T10:11:35;101504.00;;;21.92;57.59
78016;BME280;67223;51.102;5.882;2023-05-07T10:14:02;101505.31;;;22.05;57.83
78016;BME280;67223;51.102;5.882;2023-05-07T10:16:35;101509.50;;;22.07;56.94
78016;BME280;67223;51.102;5.882;2023-05-07T10:19:05;101509.16;;;22.10;55.47
78016;BME280;67223;51.102;5.882;2023-05-07T10:21:36;101510.63;;;21.98;52.83
78016;BME280;67223;51.102;5.882;2023-05-07T10:24:08;101502.59;;;22.05;53.58
78016;BME280;67223;51.102;5.882;2023-05-07T10:26:42;101502.56;;;21.59;53.42
78016;BME280;67223;51.102;5.882;2023-05-07T10:29:21;101498.00;;;22.72;51.86
78016;BME280;67223;51.102;5.882;2023-05-07T10:34:38;101501.69;;;22.42;48.92
78016;BME280;67223;51.102;5.882;2023-05-07T10:37:06;101508.50;;;22.46;51.16
78016;BME280;67223;51.102;5.882;2023-05-07T10:39:32;101505.53;;;22.32;50.46
78016;BME280;67223;51.102;5.882;2023-05-07T10:42:07;101509.41;;;22.38;50.44
78016;BME280;67223;51.102;5.882;2023-05-07T10:44:33;101508.66;;;22.29;51.26
78016;BME280;67223;51.102;5.882;2023-05-07T10:47:06;101502.81;;;22.32;52.18
78016;BME280;67223;51.102;5.882;2023-05-07T10:52:17;101512.81;;;22.17;49.85
78016;BME280;67223;51.102;5.882;2023-05-07T10:54:43;101517.47;;;22.31;49.65
78016;BME280;67223;51.102;5.882;2023-05-07T10:59:57;101519.81;;;22.35;49.01
78016;BME280;67223;51.102;5.882;2023-05-07T11:02:23;101522.22;;;22.15;49.49
78016;BME280;67223;51.102;5.882;2023-05-07T11:07:54;101516.94;;;22.13;51.00
78016;BME280;67223;51.102;5.882;2023-05-07T11:10:20;101517.09;;;22.35;50.13
78016;BME280;67223;51.102;5.882;2023-05-07T11:12:50;101520.94;;;22.25;49.83
78016;BME280;67223;51.102;5.882;2023-05-07T11:15:37;101518.22;;;22.25;51.01
78016;BME280;67223;51.102;5.882;2023-05-07T11:18:03;101523.84;;;22.39;52.25
78016;BME280;67223;51.102;5.882;2023-05-07T11:20:54;101520.94;;;22.25;53.44
78016;BME280;67223;51.102;5.882;2023-05-07T11:26:06;101515.25;;;22.12;51.35
78016;BME280;67223;51.102;5.882;2023-05-07T11:28:40;101511.00;;;21.87;53.09
78016;BME280;67223;51.102;5.882;2023-05-07T11:31:06;101512.69;;;21.96;53.29
78016;BME280;67223;51.102;5.882;2023-05-07T11:33:33;101514.03;;;21.92;54.42
78016;BME280;67223;51.102;5.882;2023-05-07T11:35:59;101522.34;;;21.76;55.58
78016;BME280;67223;51.102;5.882;2023-05-07T11:38:25;101520.44;;;21.54;55.56
78016;BME280;67223;51.102;5.882;2023-05-07T11:40:56;101528.97;;;21.51;54.61
78016;BME280;67223;51.102;5.882;2023-05-07T11:43:22;101520.84;;;21.42;54.31
78016;BME280;67223;51.102;5.882;2023-05-07T11:45:48;101530.13;;;21.56;54.22
78016;BME280;67223;51.102;5.882;2023-05-07T11:48:15;101531.38;;;21.68;53.86
78016;BME280;67223;51.102;5.882;2023-05-07T11:51:01;101536.75;;;21.54;55.75
78016;BME280;67223;51.102;5.882;2023-05-07T11:53:34;101543.69;;;21.25;59.22
78016;BME280;67223;51.102;5.882;2023-05-07T11:56:00;101542.47;;;21.28;58.59
78016;BME280;67223;51.102;5.882;2023-05-07T11:58:26;101551.38;;;21.14;60.00
78016;BME280;67223;51.102;5.882;2023-05-07T12:00:54;101553.06;;;21.15;61.75
78016;BME280;67223;51.102;5.882;2023-05-07T12:03:20;101550.00;;;21.10;62.58
78016;BME280;67223;51.102;5.882;2023-05-07T12:05:47;101553.63;;;20.94;60.25
78016;BME280;67223;51.102;5.882;2023-05-07T12:08:20;101556.63;;;20.44;62.47
78016;BME280;67223;51.102;5.882;2023-05-07T12:10:48;101549.97;;;20.62;62.55
78016;BME280;67223;51.102;5.882;2023-05-07T12:13:21;101559.63;;;20.73;62.38
78016;BME280;67223;51.102;5.882;2023-05-07T12:15:51;101552.81;;;19.56;65.51
78016;BME280;67223;51.102;5.882;2023-05-07T12:18:17;101563.84;;;19.70;67.28
78016;BME280;67223;51.102;5.882;2023-05-07T12:20:43;101560.28;;;19.78;67.60
78016;BME280;67223;51.102;5.882;2023-05-07T12:23:09;101562.50;;;19.24;68.92
78016;BME280;67223;51.102;5.882;2023-05-07T12:25:39;101562.09;;;19.45;70.02
78016;BME280;67223;51.102;5.882;2023-05-07T12:28:07;101562.16;;;19.61;70.14
78016;BME280;67223;51.102;5.882;2023-05-07T12:30:52;101560.47;;;19.85;69.20
78016;BME280;67223;51.102;5.882;2023-05-07T12:33:28;101560.63;;;19.83;69.79
78016;BME280;67223;51.102;5.882;2023-05-07T12:35:55;101570.63;;;19.74;70.81
78016;BME280;67223;51.102;5.882;2023-05-07T12:38:21;101574.69;;;19.70;70.77
78016;BME280;67223;51.102;5.882;2023-05-07T12:40:48;101575.16;;;19.58;71.54
78016;BME280;67223;51.102;5.882;2023-05-07T12:45:43;101580.81;;;19.72;71.96
78016;BME280;67223;51.102;5.882;2023-05-07T12:48:12;101579.97;;;19.80;72.14
78016;BME280;67223;51.102;5.882;2023-05-07T12:50:37;101576.84;;;19.51;72.79
78016;BME280;67223;51.102;5.882;2023-05-07T12:53:04;101573.19;;;19.76;73.36
78016;BME280;67223;51.102;5.882;2023-05-07T12:55:31;101578.00;;;19.48;72.92
78016;BME280;67223;51.102;5.882;2023-05-07T12:58:00;101586.91;;;19.32;73.03
78016;BME280;67223;51.102;5.882;2023-05-07T13:00:34;101583.78;;;19.53;73.32
78016;BME280;67223;51.102;5.882;2023-05-07T13:02:59;101587.25;;;19.80;71.68
78016;BME280;67223;51.102;5.882;2023-05-07T13:05:25;101584.69;;;19.70;70.63
78016;BME280;67223;51.102;5.882;2023-05-07T13:07:54;101584.03;;;19.76;71.70
78016;BME280;67223;51.102;5.882;2023-05-07T13:10:22;101590.81;;;19.88;71.90